sensor_id;sensor_type;location;lat;lon;timestamp;P1;durP1;ratioP1;P2;durP2;ratioP2
10481;SDS011;5288;42.334;23.876;2023-07-13T00:01:51;5.87;;;4.97;;
10481;SDS011;5288;42.334;23.876;2023-07-13T00:04:18;8.57;;;4.70;;
10481;SDS011;5288;42.334;23.876;2023-07-13T00:06:48;7.23;;;5.43;;
10481;SDS011;5288;42.334;23.876;2023-07-13T00:09:15;6.87;;;5.17;;
10481;SDS011;5288;42.334;23.876;2023-07-13T00:11:45;5.87;;;5.27;;
10481;SDS011;5288;42.334;23.876;2023-07-13T00:14:16;6.27;;;5.37;;
10481;SDS011;5288;42.334;23.876;2023-07-13T00:16:43;10.33;;;5.90;;
10481;SDS011;5288;42.334;23.876;2023-07-13T00:19:10;6.40;;;5.57;;
10481;SDS011;5288;42.334;23.876;2023-07-13T00:21:37;6.40;;;5.47;;
10481;SDS011;5288;42.334;23.876;2023-07-13T00:24:05;6.87;;;5.20;;
10481;SDS011;5288;42.334;23.876;2023-07-13T00:26:32;6.93;;;5.40;;
10481;SDS011;5288;42.334;23.876;2023-07-13T00:29:01;10.70;;;5.30;;
10481;SDS011;5288;42.334;23.876;2023-07-13T00:31:28;7.93;;;5.13;;
10481;SDS011;5288;42.334;23.876;2023-07-13T00:33:55;6.03;;;5.43;;
10481;SDS011;5288;42.334;23.876;2023-07-13T00:36:22;6.90;;;5.57;;
10481;SDS011;5288;42.334;23.876;2023-07-13T00:38:49;8.23;;;5.67;;
10481;SDS011;5288;42.334;23.876;2023-07-13T00:41:16;6.03;;;5.20;;
10481;SDS011;5288;42.334;23.876;2023-07-13T00:43:43;7.53;;;5.53;;
10481;SDS011;5288;42.334;23.876;2023-07-13T00:46:22;6.17;;;5.57;;
10481;SDS011;5288;42.334;23.876;2023-07-13T00:48:51;8.27;;;5.90;;
10481;SDS011;5288;42.334;23.876;2023-07-13T00:51:22;5.87;;;4.97;;
10481;SDS011;5288;42.334;23.876;2023-07-13T00:53:53;6.53;;;5.80;;
10481;SDS011;5288;42.334;23.876;2023-07-13T00:56:22;6.73;;;5.23;;
10481;SDS011;5288;42.334;23.876;2023-07-13T00:58:50;7.30;;;5.80;;
10481;SDS011;5288;42.334;23.876;2023-07-13T01:01:17;6.07;;;5.43;;
10481;SDS011;5288;42.334;23.876;2023-07-13T01:03:45;6.53;;;5.50;;
10481;SDS011;5288;42.334;23.876;2023-07-13T01:06:13;7.53;;;5.57;;
10481;SDS011;5288;42.334;23.876;2023-07-13T01:08:41;5.83;;;5.33;;
10481;SDS011;5288;42.334;23.876;2023-07-13T01:11:08;6.57;;;5.97;;
10481;SDS011;5288;42.334;23.876;2023-07-13T01:13:35;6.63;;;5.70;;
10481;SDS011;5288;42.334;23.876;2023-07-13T01:16:03;7.60;;;6.00;;
10481;SDS011;5288;42.334;23.876;2023-07-13T01:18:38;7.40;;;5.80;;
10481;SDS011;5288;42.334;23.876;2023-07-13T01:21:06;10.60;;;6.07;;
10481;SDS011;5288;42.334;23.876;2023-07-13T01:23:33;6.43;;;5.83;;
10481;SDS011;5288;42.334;23.876;2023-07-13T01:26:00;7.37;;;6.23;;
10481;SDS011;5288;42.334;23.876;2023-07-13T01:28:28;6.27;;;5.67;;
10481;SDS011;5288;42.334;23.876;2023-07-13T01:30:56;6.63;;;5.87;;
10481;SDS011;5288;42.334;23.876;2023-07-13T01:33:25;7.13;;;6.10;;
10481;SDS011;5288;42.334;23.876;2023-07-13T01:35:52;6.33;;;5.73;;
10481;SDS011;5288;42.334;23.876;2023-07-13T01:38:21;7.73;;;5.83;;
10481;SDS011;5288;42.334;23.876;2023-07-13T01:40:49;7.10;;;6.37;;
10481;SDS011;5288;42.334;23.876;2023-07-13T01:43:16;11.63;;;6.47;;
10481;SDS011;5288;42.334;23.876;2023-07-13T01:45:44;9.23;;;5.83;;
10481;SDS011;5288;42.334;23.876;2023-07-13T01:48:11;7.33;;;6.63;;
10481;SDS011;5288;42.334;23.876;2023-07-13T01:50:38;6.60;;;6.00;;
10481;SDS011;5288;42.334;23.876;2023-07-13T01:53:05;7.23;;;5.80;;
10481;SDS011;5288;42.334;23.876;2023-07-13T01:55:34;18.03;;;8.07;;
10481;SDS011;5288;42.334;23.876;2023-07-13T01:58:02;10.97;;;7.50;;
10481;SDS011;5288;42.334;23.876;2023-07-13T02:00:30;7.63;;;6.83;;
10481;SDS011;5288;42.334;23.876;2023-07-13T02:02:57;9.90;;;6.47;;
10481;SDS011;5288;42.334;23.876;2023-07-13T02:05:24;9.23;;;6.70;;
10481;SDS011;5288;42.334;23.876;2023-07-13T02:07:52;6.80;;;6.10;;
10481;SDS011;5288;42.334;23.876;2023-07-13T02:10:19;7.73;;;6.20;;
10481;SDS011;5288;42.334;23.876;2023-07-13T02:12:47;7.67;;;6.73;;
10481;SDS011;5288;42.334;23.876;2023-07-13T02:15:15;8.10;;;6.40;;
10481;SDS011;5288;42.334;23.876;2023-07-13T02:17:42;11.00;;;7.23;;
10481;SDS011;5288;42.334;23.876;2023-07-13T02:20:09;7.63;;;6.83;;
10481;SDS011;5288;42.334;23.876;2023-07-13T02:22:37;9.20;;;6.03;;
10481;SDS011;5288;42.334;23.876;2023-07-13T02:25:04;8.27;;;6.07;;
10481;SDS011;5288;42.334;23.876;2023-07-13T02:27:31;8.43;;;5.87;;
10481;SDS011;5288;42.334;23.876;2023-07-13T02:30:00;7.83;;;6.33;;
10481;SDS011;5288;42.334;23.876;2023-07-13T02:32:28;9.63;;;7.17;;
10481;SDS011;5288;42.334;23.876;2023-07-13T02:34:55;10.60;;;6.67;;
10481;SDS011;5288;42.334;23.876;2023-07-13T02:37:22;8.47;;;6.60;;
10481;SDS011;5288;42.334;23.876;2023-07-13T02:39:49;10.63;;;6.80;;
10481;SDS011;5288;42.334;23.876;2023-07-13T02:42:16;12.07;;;7.03;;
10481;SDS011;5288;42.334;23.876;2023-07-13T02:44:43;7.93;;;6.37;;
10481;SDS011;5288;42.334;23.876;2023-07-13T02:47:11;7.07;;;6.47;;
10481;SDS011;5288;42.334;23.876;2023-07-13T02:49:38;7.40;;;6.10;;
10481;SDS011;5288;42.334;23.876;2023-07-13T02:52:05;9.70;;;7.33;;
10481;SDS011;5288;42.334;23.876;2023-07-13T02:54:33;24.53;;;8.10;;
10481;SDS011;5288;42.334;23.876;2023-07-13T02:56:59;9.50;;;6.87;;
10481;SDS011;5288;42.334;23.876;2023-07-13T02:59:26;34.93;;;8.47;;
10481;SDS011;5288;42.334;23.876;2023-07-13T03:01:53;24.43;;;7.00;;
10481;SDS011;5288;42.334;23.876;2023-07-13T03:04:22;32.63;;;8.03;;
10481;SDS011;5288;42.334;23.876;2023-07-13T03:06:49;21.57;;;7.50;;
10481;SDS011;5288;42.334;23.876;2023-07-13T03:09:16;8.47;;;6.50;;
10481;SDS011;5288;42.334;23.876;2023-07-13T03:11:43;8.20;;;6.40;;
10481;SDS011;5288;42.334;23.876;2023-07-13T03:14:10;13.60;;;6.50;;
10481;SDS011;5288;42.334;23.876;2023-07-13T03:16:37;7.53;;;5.97;;
10481;SDS011;5288;42.334;23.876;2023-07-13T03:19:04;7.07;;;6.03;;
10481;SDS011;5288;42.334;23.876;2023-07-13T03:21:32;10.43;;;6.00;;
10481;SDS011;5288;42.334;23.876;2023-07-13T03:23:59;8.00;;;6.20;;
10481;SDS011;5288;42.334;23.876;2023-07-13T03:26:26;9.43;;;6.33;;
10481;SDS011;5288;42.334;23.876;2023-07-13T03:28:54;7.40;;;6.60;;
10481;SDS011;5288;42.334;23.876;2023-07-13T03:31:22;15.53;;;6.60;;
10481;SDS011;5288;42.334;23.876;2023-07-13T03:33:51;17.03;;;6.83;;
10481;SDS011;5288;42.334;23.876;2023-07-13T03:36:19;11.83;;;6.67;;
10481;SDS011;5288;42.334;23.876;2023-07-13T03:38:51;20.17;;;7.10;;
10481;SDS011;5288;42.334;23.876;2023-07-13T03:41:19;14.53;;;7.57;;
10481;SDS011;5288;42.334;23.876;2023-07-13T03:43:47;18.33;;;7.67;;
10481;SDS011;5288;42.334;23.876;2023-07-13T03:46:14;15.80;;;7.77;;
10481;SDS011;5288;42.334;23.876;2023-07-13T03:48:42;17.07;;;7.07;;
10481;SDS011;5288;42.334;23.876;2023-07-13T03:51:10;22.33;;;7.93;;
10481;SDS011;5288;42.334;23.876;2023-07-13T03:53:38;16.57;;;7.73;;
10481;SDS011;5288;42.334;23.876;2023-07-13T03:56:07;10.17;;;7.60;;
10481;SDS011;5288;42.334;23.876;2023-07-13T03:58:35;11.77;;;7.10;;
10481;SDS011;5288;42.334;23.876;2023-07-13T04:01:04;20.37;;;7.87;;
10481;SDS011;5288;42.334;23.876;2023-07-13T04:03:32;14.23;;;8.03;;
10481;SDS011;5288;42.334;23.876;2023-07-13T04:06:01;10.80;;;7.03;;
10481;SDS011;5288;42.334;23.876;2023-07-13T04:08:30;16.33;;;7.50;;
10481;SDS011;5288;42.334;23.876;2023-07-13T04:11:02;12.23;;;6.80;;
10481;SDS011;5288;42.334;23.876;2023-07-13T04:13:32;46.03;;;10.37;;
10481;SDS011;5288;42.334;23.876;2023-07-13T04:15:59;10.30;;;6.53;;
10481;SDS011;5288;42.334;23.876;2023-07-13T04:18:26;7.07;;;6.37;;
10481;SDS011;5288;42.334;23.876;2023-07-13T04:20:53;12.33;;;6.53;;
10481;SDS011;5288;42.334;23.876;2023-07-13T04:23:20;11.77;;;6.60;;
10481;SDS011;5288;42.334;23.876;2023-07-13T04:25:47;7.27;;;6.53;;
10481;SDS011;5288;42.334;23.876;2023-07-13T04:28:15;7.30;;;6.53;;
10481;SDS011;5288;42.334;23.876;2023-07-13T04:30:44;15.50;;;7.30;;
10481;SDS011;5288;42.334;23.876;2023-07-13T04:33:11;15.40;;;7.70;;
10481;SDS011;5288;42.334;23.876;2023-07-13T04:35:38;8.93;;;6.53;;
10481;SDS011;5288;42.334;23.876;2023-07-13T04:38:05;11.27;;;6.70;;
10481;SDS011;5288;42.334;23.876;2023-07-13T04:40:35;8.03;;;6.50;;
10481;SDS011;5288;42.334;23.876;2023-07-13T04:43:10;22.20;;;14.50;;
10481;SDS011;5288;42.334;23.876;2023-07-13T04:45:37;9.23;;;6.80;;
10481;SDS011;5288;42.334;23.876;2023-07-13T04:48:06;7.80;;;6.50;;
10481;SDS011;5288;42.334;23.876;2023-07-13T04:50:35;8.47;;;6.77;;
10481;SDS011;5288;42.334;23.876;2023-07-13T04:53:03;7.03;;;6.33;;
10481;SDS011;5288;42.334;23.876;2023-07-13T04:55:30;7.77;;;7.07;;
10481;SDS011;5288;42.334;23.876;2023-07-13T04:57:57;9.93;;;7.83;;
10481;SDS011;5288;42.334;23.876;2023-07-13T05:00:25;9.77;;;6.43;;
10481;SDS011;5288;42.334;23.876;2023-07-13T05:02:53;13.07;;;7.13;;
10481;SDS011;5288;42.334;23.876;2023-07-13T05:05:22;9.20;;;6.17;;
10481;SDS011;5288;42.334;23.876;2023-07-13T05:07:49;9.83;;;6.30;;
10481;SDS011;5288;42.334;23.876;2023-07-13T05:10:17;13.83;;;7.00;;
10481;SDS011;5288;42.334;23.876;2023-07-13T05:12:44;8.80;;;6.40;;
10481;SDS011;5288;42.334;23.876;2023-07-13T05:15:13;9.67;;;6.50;;
10481;SDS011;5288;42.334;23.876;2023-07-13T05:17:57;9.33;;;7.13;;
10481;SDS011;5288;42.334;23.876;2023-07-13T05:20:50;11.43;;;7.40;;
10481;SDS011;5288;42.334;23.876;2023-07-13T05:23:34;9.03;;;6.97;;
10481;SDS011;5288;42.334;23.876;2023-07-13T05:26:02;8.90;;;6.67;;
10481;SDS011;5288;42.334;23.876;2023-07-13T05:28:30;8.63;;;6.83;;
10481;SDS011;5288;42.334;23.876;2023-07-13T05:30:57;10.93;;;6.77;;
10481;SDS011;5288;42.334;23.876;2023-07-13T05:33:25;9.70;;;6.20;;
10481;SDS011;5288;42.334;23.876;2023-07-13T05:35:55;10.20;;;7.03;;
10481;SDS011;5288;42.334;23.876;2023-07-13T05:38:25;8.07;;;6.27;;
10481;SDS011;5288;42.334;23.876;2023-07-13T05:41:07;8.27;;;6.77;;
10481;SDS011;5288;42.334;23.876;2023-07-13T05:43:34;6.83;;;6.13;;
10481;SDS011;5288;42.334;23.876;2023-07-13T05:46:01;10.73;;;6.87;;
10481;SDS011;5288;42.334;23.876;2023-07-13T05:48:29;15.10;;;7.23;;
10481;SDS011;5288;42.334;23.876;2023-07-13T05:50:57;10.40;;;6.40;;
10481;SDS011;5288;42.334;23.876;2023-07-13T05:53:24;9.83;;;6.23;;
10481;SDS011;5288;42.334;23.876;2023-07-13T05:55:53;13.20;;;6.57;;
10481;SDS011;5288;42.334;23.876;2023-07-13T05:58:21;10.87;;;6.20;;
10481;SDS011;5288;42.334;23.876;2023-07-13T06:00:58;10.40;;;5.97;;
10481;SDS011;5288;42.334;23.876;2023-07-13T06:03:26;6.83;;;6.23;;
10481;SDS011;5288;42.334;23.876;2023-07-13T06:05:53;7.17;;;6.43;;
10481;SDS011;5288;42.334;23.876;2023-07-13T06:08:21;9.80;;;5.80;;
10481;SDS011;5288;42.334;23.876;2023-07-13T06:10:48;6.43;;;5.70;;
10481;SDS011;5288;42.334;23.876;2023-07-13T06:13:15;7.53;;;5.90;;
10481;SDS011;5288;42.334;23.876;2023-07-13T06:15:47;9.57;;;6.17;;
10481;SDS011;5288;42.334;23.876;2023-07-13T06:18:15;8.63;;;6.33;;
10481;SDS011;5288;42.334;23.876;2023-07-13T06:20:45;7.33;;;6.10;;
10481;SDS011;5288;42.334;23.876;2023-07-13T06:23:11;9.23;;;5.97;;
10481;SDS011;5288;42.334;23.876;2023-07-13T06:25:41;7.77;;;6.13;;
10481;SDS011;5288;42.334;23.876;2023-07-13T06:28:09;7.10;;;6.40;;
10481;SDS011;5288;42.334;23.876;2023-07-13T06:30:39;10.37;;;6.30;;
10481;SDS011;5288;42.334;23.876;2023-07-13T06:33:16;8.00;;;6.60;;
10481;SDS011;5288;42.334;23.876;2023-07-13T06:35:58;6.60;;;6.00;;
10481;SDS011;5288;42.334;23.876;2023-07-13T06:38:25;7.20;;;6.50;;
10481;SDS011;5288;42.334;23.876;2023-07-13T06:40:58;9.00;;;6.20;;
10481;SDS011;5288;42.334;23.876;2023-07-13T06:43:25;7.83;;;6.10;;
10481;SDS011;5288;42.334;23.876;2023-07-13T06:45:54;10.67;;;6.73;;
10481;SDS011;5288;42.334;23.876;2023-07-13T06:48:21;11.60;;;6.53;;
10481;SDS011;5288;42.334;23.876;2023-07-13T06:50:49;9.18;;;5.85;;
10481;SDS011;5288;42.334;23.876;2023-07-13T06:53:18;7.93;;;6.00;;
10481;SDS011;5288;42.334;23.876;2023-07-13T06:55:48;9.48;;;6.47;;
10481;SDS011;5288;42.334;23.876;2023-07-13T06:58:18;9.90;;;6.10;;
10481;SDS011;5288;42.334;23.876;2023-07-13T07:00:45;8.30;;;6.22;;
10481;SDS011;5288;42.334;23.876;2023-07-13T07:03:16;11.40;;;6.13;;
10481;SDS011;5288;42.334;23.876;2023-07-13T07:05:43;8.55;;;6.25;;
10481;SDS011;5288;42.334;23.876;2023-07-13T07:08:10;8.13;;;6.13;;
10481;SDS011;5288;42.334;23.876;2023-07-13T07:10:37;9.23;;;6.25;;
10481;SDS011;5288;42.334;23.876;2023-07-13T07:13:04;6.60;;;6.00;;
10481;SDS011;5288;42.334;23.876;2023-07-13T07:15:33;8.13;;;5.78;;
10481;SDS011;5288;42.334;23.876;2023-07-13T07:18:00;7.50;;;6.35;;
10481;SDS011;5288;42.334;23.876;2023-07-13T07:20:27;7.70;;;6.20;;
10481;SDS011;5288;42.334;23.876;2023-07-13T07:22:57;12.73;;;6.60;;
10481;SDS011;5288;42.334;23.876;2023-07-13T07:25:25;11.18;;;6.50;;
10481;SDS011;5288;42.334;23.876;2023-07-13T07:27:57;6.82;;;6.22;;
10481;SDS011;5288;42.334;23.876;2023-07-13T07:30:25;7.28;;;6.57;;
10481;SDS011;5288;42.334;23.876;2023-07-13T07:32:53;6.93;;;6.22;;
10481;SDS011;5288;42.334;23.876;2023-07-13T07:35:20;8.45;;;6.47;;
10481;SDS011;5288;42.334;23.876;2023-07-13T07:37:47;9.20;;;6.15;;
10481;SDS011;5288;42.334;23.876;2023-07-13T07:40:14;8.38;;;6.78;;
10481;SDS011;5288;42.334;23.876;2023-07-13T07:42:41;7.43;;;6.13;;
10481;SDS011;5288;42.334;23.876;2023-07-13T07:45:08;8.02;;;6.20;;
10481;SDS011;5288;42.334;23.876;2023-07-13T07:47:38;7.80;;;7.00;;
10481;SDS011;5288;42.334;23.876;2023-07-13T07:50:08;8.23;;;6.30;;
10481;SDS011;5288;42.334;23.876;2023-07-13T07:52:35;8.65;;;6.22;;
10481;SDS011;5288;42.334;23.876;2023-07-13T07:55:03;10.15;;;5.70;;
10481;SDS011;5288;42.334;23.876;2023-07-13T07:57:30;11.05;;;6.05;;
10481;SDS011;5288;42.334;23.876;2023-07-13T07:59:57;13.23;;;6.53;;
10481;SDS011;5288;42.334;23.876;2023-07-13T08:02:24;7.78;;;6.43;;
10481;SDS011;5288;42.334;23.876;2023-07-13T08:04:52;6.95;;;6.35;;
10481;SDS011;5288;42.334;23.876;2023-07-13T08:07:21;8.05;;;6.43;;
10481;SDS011;5288;42.334;23.876;2023-07-13T08:09:48;12.40;;;6.72;;
10481;SDS011;5288;42.334;23.876;2023-07-13T08:12:18;8.05;;;5.60;;
10481;SDS011;5288;42.334;23.876;2023-07-13T08:14:45;8.75;;;6.13;;
10481;SDS011;5288;42.334;23.876;2023-07-13T08:17:15;11.60;;;6.28;;
10481;SDS011;5288;42.334;23.876;2023-07-13T08:19:42;10.13;;;6.80;;
10481;SDS011;5288;42.334;23.876;2023-07-13T08:22:09;8.43;;;6.20;;
10481;SDS011;5288;42.334;23.876;2023-07-13T08:24:38;8.48;;;6.63;;
10481;SDS011;5288;42.334;23.876;2023-07-13T08:27:05;12.48;;;7.35;;
10481;SDS011;5288;42.334;23.876;2023-07-13T08:29:32;8.13;;;6.18;;
10481;SDS011;5288;42.334;23.876;2023-07-13T08:31:59;6.57;;;5.95;;
10481;SDS011;5288;42.334;23.876;2023-07-13T08:34:27;7.55;;;6.53;;
10481;SDS011;5288;42.334;23.876;2023-07-13T08:36:54;8.65;;;6.53;;
10481;SDS011;5288;42.334;23.876;2023-07-13T08:39:21;10.23;;;6.50;;
10481;SDS011;5288;42.334;23.876;2023-07-13T08:41:50;7.40;;;6.63;;
10481;SDS011;5288;42.334;23.876;2023-07-13T08:44:38;7.93;;;6.65;;
10481;SDS011;5288;42.334;23.876;2023-07-13T08:47:12;10.82;;;6.72;;
10481;SDS011;5288;42.334;23.876;2023-07-13T08:49:42;8.50;;;6.28;;
10481;SDS011;5288;42.334;23.876;2023-07-13T08:52:12;7.18;;;6.15;;
10481;SDS011;5288;42.334;23.876;2023-07-13T08:54:47;8.05;;;7.20;;
10481;SDS011;5288;42.334;23.876;2023-07-13T08:57:21;7.38;;;6.47;;
10481;SDS011;5288;42.334;23.876;2023-07-13T08:59:55;9.95;;;5.80;;
10481;SDS011;5288;42.334;23.876;2023-07-13T09:02:25;8.82;;;5.90;;
10481;SDS011;5288;42.334;23.876;2023-07-13T09:04:56;9.40;;;5.97;;
10481;SDS011;5288;42.334;23.876;2023-07-13T09:07:32;7.30;;;5.72;;
10481;SDS011;5288;42.334;23.876;2023-07-13T09:10:14;11.13;;;6.10;;
10481;SDS011;5288;42.334;23.876;2023-07-13T09:12:48;7.05;;;5.75;;
10481;SDS011;5288;42.334;23.876;2023-07-13T09:15:27;9.20;;;6.10;;
10481;SDS011;5288;42.334;23.876;2023-07-13T09:18:02;10.57;;;5.63;;
10481;SDS011;5288;42.334;23.876;2023-07-13T09:20:37;8.95;;;5.85;;
10481;SDS011;5288;42.334;23.876;2023-07-13T09:23:14;9.70;;;6.00;;
10481;SDS011;5288;42.334;23.876;2023-07-13T09:25:48;7.47;;;5.55;;
10481;SDS011;5288;42.334;23.876;2023-07-13T09:28:23;10.25;;;6.05;;
10481;SDS011;5288;42.334;23.876;2023-07-13T09:30:56;7.22;;;5.88;;
10481;SDS011;5288;42.334;23.876;2023-07-13T09:33:27;7.63;;;5.57;;
10481;SDS011;5288;42.334;23.876;2023-07-13T09:35:55;9.00;;;6.00;;
10481;SDS011;5288;42.334;23.876;2023-07-13T09:38:24;8.18;;;5.38;;
10481;SDS011;5288;42.334;23.876;2023-07-13T09:40:59;8.00;;;5.30;;
10481;SDS011;5288;42.334;23.876;2023-07-13T09:43:35;9.07;;;5.75;;
10481;SDS011;5288;42.334;23.876;2023-07-13T09:46:02;8.32;;;5.95;;
10481;SDS011;5288;42.334;23.876;2023-07-13T09:48:33;7.25;;;5.63;;
10481;SDS011;5288;42.334;23.876;2023-07-13T09:51:06;6.53;;;5.80;;
10481;SDS011;5288;42.334;23.876;2023-07-13T09:53:41;6.97;;;6.18;;
10481;SDS011;5288;42.334;23.876;2023-07-13T09:56:18;7.00;;;5.68;;
10481;SDS011;5288;42.334;23.876;2023-07-13T09:58:48;6.53;;;5.63;;
10481;SDS011;5288;42.334;23.876;2023-07-13T10:01:15;8.02;;;5.90;;
10481;SDS011;5288;42.334;23.876;2023-07-13T10:03:56;7.35;;;4.93;;
10481;SDS011;5288;42.334;23.876;2023-07-13T10:06:24;7.07;;;5.28;;
10481;SDS011;5288;42.334;23.876;2023-07-13T10:08:51;7.63;;;5.85;;
10481;SDS011;5288;42.334;23.876;2023-07-13T10:11:19;7.93;;;5.90;;
10481;SDS011;5288;42.334;23.876;2023-07-13T10:13:51;10.13;;;5.70;;
10481;SDS011;5288;42.334;23.876;2023-07-13T10:16:21;7.05;;;6.20;;
10481;SDS011;5288;42.334;23.876;2023-07-13T10:18:51;6.28;;;5.10;;
10481;SDS011;5288;42.334;23.876;2023-07-13T10:21:23;7.78;;;5.50;;
10481;SDS011;5288;42.334;23.876;2023-07-13T10:23:59;12.45;;;5.80;;
10481;SDS011;5288;42.334;23.876;2023-07-13T10:26:42;7.35;;;5.63;;
10481;SDS011;5288;42.334;23.876;2023-07-13T10:29:16;9.75;;;6.00;;
10481;SDS011;5288;42.334;23.876;2023-07-13T10:31:46;7.45;;;5.20;;
10481;SDS011;5288;42.334;23.876;2023-07-13T10:34:15;9.10;;;5.47;;
10481;SDS011;5288;42.334;23.876;2023-07-13T10:36:43;6.25;;;5.63;;
10481;SDS011;5288;42.334;23.876;2023-07-13T10:39:15;10.57;;;5.57;;
10481;SDS011;5288;42.334;23.876;2023-07-13T10:41:45;8.63;;;5.28;;
10481;SDS011;5288;42.334;23.876;2023-07-13T10:44:19;10.32;;;5.57;;
10481;SDS011;5288;42.334;23.876;2023-07-13T10:46:53;7.65;;;5.60;;
10481;SDS011;5288;42.334;23.876;2023-07-13T10:49:23;11.60;;;6.00;;
10481;SDS011;5288;42.334;23.876;2023-07-13T10:51:53;7.75;;;5.22;;
10481;SDS011;5288;42.334;23.876;2023-07-13T10:54:21;6.65;;;5.15;;
10481;SDS011;5288;42.334;23.876;2023-07-13T10:56:53;5.80;;;4.50;;
10481;SDS011;5288;42.334;23.876;2023-07-13T10:59:44;8.32;;;4.70;;
10481;SDS011;5288;42.334;23.876;2023-07-13T11:02:16;9.32;;;4.43;;
10481;SDS011;5288;42.334;23.876;2023-07-13T11:04:52;10.15;;;4.97;;
10481;SDS011;5288;42.334;23.876;2023-07-13T11:07:23;7.15;;;5.25;;
10481;SDS011;5288;42.334;23.876;2023-07-13T11:09:53;7.53;;;4.97;;
10481;SDS011;5288;42.334;23.876;2023-07-13T11:15:28;8.88;;;4.43;;
10481;SDS011;5288;42.334;23.876;2023-07-13T11:18:02;10.88;;;5.45;;
10481;SDS011;5288;42.334;23.876;2023-07-13T11:20:34;7.55;;;4.90;;
10481;SDS011;5288;42.334;23.876;2023-07-13T11:23:08;9.30;;;5.07;;
10481;SDS011;5288;42.334;23.876;2023-07-13T11:25:45;10.35;;;5.50;;
10481;SDS011;5288;42.334;23.876;2023-07-13T11:28:18;8.65;;;5.20;;
10481;SDS011;5288;42.334;23.876;2023-07-13T11:31:01;10.80;;;4.93;;
10481;SDS011;5288;42.334;23.876;2023-07-13T11:33:57;11.13;;;4.85;;
10481;SDS011;5288;42.334;23.876;2023-07-13T11:36:30;7.15;;;4.53;;
10481;SDS011;5288;42.334;23.876;2023-07-13T11:39:03;9.80;;;4.43;;
10481;SDS011;5288;42.334;23.876;2023-07-13T11:41:38;8.57;;;4.20;;
10481;SDS011;5288;42.334;23.876;2023-07-13T11:44:12;10.80;;;4.00;;
10481;SDS011;5288;42.334;23.876;2023-07-13T11:46:46;8.20;;;4.10;;
10481;SDS011;5288;42.334;23.876;2023-07-13T11:49:17;8.32;;;4.53;;
10481;SDS011;5288;42.334;23.876;2023-07-13T11:51:45;9.02;;;4.30;;
10481;SDS011;5288;42.334;23.876;2023-07-13T11:54:17;11.32;;;4.18;;
10481;SDS011;5288;42.334;23.876;2023-07-13T11:56:52;9.00;;;4.63;;
10481;SDS011;5288;42.334;23.876;2023-07-13T11:59:27;9.43;;;4.65;;
10481;SDS011;5288;42.334;23.876;2023-07-13T12:02:13;8.50;;;4.68;;
10481;SDS011;5288;42.334;23.876;2023-07-13T12:04:44;7.75;;;4.93;;
10481;SDS011;5288;42.334;23.876;2023-07-13T12:07:15;6.65;;;4.35;;
10481;SDS011;5288;42.334;23.876;2023-07-13T12:09:43;9.82;;;4.93;;
10481;SDS011;5288;42.334;23.876;2023-07-13T12:12:11;6.07;;;4.63;;
10481;SDS011;5288;42.334;23.876;2023-07-13T12:14:39;6.90;;;4.53;;
10481;SDS011;5288;42.334;23.876;2023-07-13T12:17:10;7.15;;;4.43;;
10481;SDS011;5288;42.334;23.876;2023-07-13T12:19:41;6.85;;;4.93;;
10481;SDS011;5288;42.334;23.876;2023-07-13T12:22:08;11.07;;;5.65;;
10481;SDS011;5288;42.334;23.876;2023-07-13T12:24:39;9.90;;;4.82;;
10481;SDS011;5288;42.334;23.876;2023-07-13T12:27:14;10.13;;;5.65;;
10481;SDS011;5288;42.334;23.876;2023-07-13T12:29:50;11.35;;;4.70;;
10481;SDS011;5288;42.334;23.876;2023-07-13T12:32:25;10.98;;;5.13;;
10481;SDS011;5288;42.334;23.876;2023-07-13T12:34:55;12.07;;;5.53;;
10481;SDS011;5288;42.334;23.876;2023-07-13T12:37:33;12.10;;;5.10;;
10481;SDS011;5288;42.334;23.876;2023-07-13T12:40:05;7.38;;;5.18;;
10481;SDS011;5288;42.334;23.876;2023-07-13T12:42:39;13.18;;;4.93;;
10481;SDS011;5288;42.334;23.876;2023-07-13T12:45:11;12.43;;;4.90;;
10481;SDS011;5288;42.334;23.876;2023-07-13T12:47:47;7.53;;;5.30;;
10481;SDS011;5288;42.334;23.876;2023-07-13T12:50:18;9.32;;;4.78;;
10481;SDS011;5288;42.334;23.876;2023-07-13T12:52:50;7.15;;;4.75;;
10481;SDS011;5288;42.334;23.876;2023-07-13T12:55:20;8.45;;;4.85;;
10481;SDS011;5288;42.334;23.876;2023-07-13T12:57:49;7.38;;;4.93;;
10481;SDS011;5288;42.334;23.876;2023-07-13T13:00:22;9.27;;;5.05;;
10481;SDS011;5288;42.334;23.876;2023-07-13T13:03:02;8.30;;;4.90;;
10481;SDS011;5288;42.334;23.876;2023-07-13T13:05:32;10.57;;;4.82;;
10481;SDS011;5288;42.334;23.876;2023-07-13T13:08:03;8.40;;;4.93;;
10481;SDS011;5288;42.334;23.876;2023-07-13T13:10:30;8.68;;;4.85;;
10481;SDS011;5288;42.334;23.876;2023-07-13T13:12:57;9.27;;;5.18;;
10481;SDS011;5288;42.334;23.876;2023-07-13T13:15:24;8.00;;;5.20;;
10481;SDS011;5288;42.334;23.876;2023-07-13T13:17:51;9.88;;;5.43;;
10481;SDS011;5288;42.334;23.876;2023-07-13T13:20:20;10.93;;;4.78;;
10481;SDS011;5288;42.334;23.876;2023-07-13T13:22:50;11.07;;;5.25;;
10481;SDS011;5288;42.334;23.876;2023-07-13T13:25:17;8.43;;;5.28;;
10481;SDS011;5288;42.334;23.876;2023-07-13T13:27:46;9.88;;;5.18;;
10481;SDS011;5288;42.334;23.876;2023-07-13T13:30:17;9.63;;;4.82;;
10481;SDS011;5288;42.334;23.876;2023-07-13T13:32:45;8.32;;;4.53;;
10481;SDS011;5288;42.334;23.876;2023-07-13T13:35:14;9.80;;;4.88;;
10481;SDS011;5288;42.334;23.876;2023-07-13T13:37:44;10.30;;;5.63;;
10481;SDS011;5288;42.334;23.876;2023-07-13T13:40:14;9.88;;;4.78;;
10481;SDS011;5288;42.334;23.876;2023-07-13T13:42:43;13.02;;;4.57;;
10481;SDS011;5288;42.334;23.876;2023-07-13T13:45:10;10.00;;;4.25;;
10481;SDS011;5288;42.334;23.876;2023-07-13T13:47:38;12.18;;;5.63;;
10481;SDS011;5288;42.334;23.876;2023-07-13T13:50:12;12.15;;;4.70;;
10481;SDS011;5288;42.334;23.876;2023-07-13T13:52:41;7.60;;;4.53;;
10481;SDS011;5288;42.334;23.876;2023-07-13T13:55:13;6.75;;;4.95;;
10481;SDS011;5288;42.334;23.876;2023-07-13T13:57:41;8.80;;;4.93;;
10481;SDS011;5288;42.334;23.876;2023-07-13T14:00:09;11.35;;;5.05;;
10481;SDS011;5288;42.334;23.876;2023-07-13T14:02:39;21.67;;;5.38;;
10481;SDS011;5288;42.334;23.876;2023-07-13T14:05:13;10.13;;;4.40;;
10481;SDS011;5288;42.334;23.876;2023-07-13T14:07:41;8.90;;;4.97;;
10481;SDS011;5288;42.334;23.876;2023-07-13T14:10:10;9.23;;;5.18;;
10481;SDS011;5288;42.334;23.876;2023-07-13T14:12:41;5.68;;;4.00;;
10481;SDS011;5288;42.334;23.876;2023-07-13T14:15:12;8.77;;;4.18;;
10481;SDS011;5288;42.334;23.876;2023-07-13T14:17:43;9.85;;;4.53;;
10481;SDS011;5288;42.334;23.876;2023-07-13T14:20:11;7.68;;;4.75;;
10481;SDS011;5288;42.334;23.876;2023-07-13T14:22:39;9.68;;;5.00;;
10481;SDS011;5288;42.334;23.876;2023-07-13T14:25:10;12.65;;;4.60;;
10481;SDS011;5288;42.334;23.876;2023-07-13T14:27:41;15.25;;;4.78;;
10481;SDS011;5288;42.334;23.876;2023-07-13T14:30:12;9.02;;;4.45;;
10481;SDS011;5288;42.334;23.876;2023-07-13T14:32:40;11.75;;;4.75;;
10481;SDS011;5288;42.334;23.876;2023-07-13T14:35:07;10.48;;;4.57;;
10481;SDS011;5288;42.334;23.876;2023-07-13T14:37:36;16.25;;;4.85;;
10481;SDS011;5288;42.334;23.876;2023-07-13T14:40:08;6.80;;;4.80;;
10481;SDS011;5288;42.334;23.876;2023-07-13T14:42:40;10.23;;;4.60;;
10481;SDS011;5288;42.334;23.876;2023-07-13T14:45:14;8.07;;;4.93;;
10481;SDS011;5288;42.334;23.876;2023-07-13T14:47:42;9.27;;;5.20;;
10481;SDS011;5288;42.334;23.876;2023-07-13T14:50:23;9.68;;;4.60;;
10481;SDS011;5288;42.334;23.876;2023-07-13T14:53:07;12.10;;;5.30;;
10481;SDS011;5288;42.334;23.876;2023-07-13T14:56:15;13.30;;;5.00;;
10481;SDS011;5288;42.334;23.876;2023-07-13T14:59:18;11.73;;;4.95;;
10481;SDS011;5288;42.334;23.876;2023-07-13T15:01:55;11.15;;;5.00;;
10481;SDS011;5288;42.334;23.876;2023-07-13T15:04:37;10.00;;;5.05;;